Time;durP1;ratioP1;P1;durP2;ratioP2;P2;SDS_P1;SDS_P2;PMS_P1;PMS_P2;Temp;Humidity;BMP_temperature;BMP_pressure;BME280_temperature;BME280_humidity;BME280_pressure;Samples;Min_cycle;Max_cycle;Signal;HPM_P1;HPM_P2
2022/03/23 00:02:30;;;;;;;;;;;;;;;11.66;27.69;102366.84;5079904;28;19920;-76
2022/03/23 00:05:17;;;;;;;;;;;;;;;11.50;28.16;102366.94;5078176;28;20123;-75
2022/03/23 00:08:02;;;;;;;;;;;;;;;11.72;27.26;102369.28;5073843;28;19912;-74
2022/03/23 00:10:46;;;;;;;;;;;;;;;11.49;27.76;102361.75;5073502;28;19912;-75
2022/03/23 00:13:30;;;;;;;;;;;;;;;11.54;27.90;102359.00;5057692;28;20372;-75
2022/03/23 00:16:15;;;;;;;;;;;;;;;11.56;27.57;102356.81;5053670;28;19913;-75
2022/03/23 00:18:59;;;;;;;;;;;;;;;11.54;27.90;102359.81;5053537;28;19913;-74
2022/03/23 00:21:43;;;;;;;;;;;;;;;11.65;28.17;102363.31;5059436;28;19912;-74
2022/03/23 00:24:28;;;;;;;;;;;;;;;11.81;27.63;102359.41;5075869;28;19912;-73
2022/03/23 00:27:12;;;;;;;;;;;;;;;11.68;27.49;102354.59;5073437;28;19917;-75
2022/03/23 00:29:57;;;;;;;;;;;;;;;11.37;27.83;102344.94;5073168;28;19912;-74
2022/03/23 00:32:42;;;;;;;;;;;;;;;11.10;27.42;102346.16;5076422;28;19917;-74
2022/03/23 00:35:26;;;;;;;;;;;;;;;11.20;26.83;102349.94;5073196;28;19916;-74
2022/03/23 00:38:12;;;;;;;;;;;;;;;11.07;27.53;102343.19;5073299;28;19916;-76
2022/03/23 00:40:56;;;;;;;;;;;;;;;10.80;29.14;102342.72;5073083;28;19917;-75
2022/03/23 00:43:41;;;;;;;;;;;;;;;11.05;30.21;102338.00;5073037;28;19912;-75
2022/03/23 00:46:25;;;;;;;;;;;;;;;11.07;28.66;102337.75;5073074;28;19916;-76
2022/03/23 00:49:13;;;;;;;;;;;;;;;11.01;28.60;102339.66;5072898;28;19916;-76
2022/03/23 00:52:02;;;;;;;;;;;;;;;10.80;30.17;102332.66;5072009;28;19920;-77
2022/03/23 00:54:48;;;;;;;;;;;;;;;10.71;27.90;102334.31;5073000;28;19912;-76
2022/03/23 00:57:32;;;;;;;;;;;;;;;10.72;29.40;102335.94;5074916;28;19912;-77
2022/03/23 01:00:17;;;;;;;;;;;;;;;10.81;29.34;102334.31;5072315;28;19912;-76
2022/03/23 01:03:04;;;;;;;;;;;;;;;10.47;28.05;102333.25;5065566;28;19913;-76
2022/03/23 01:05:50;;;;;;;;;;;;;;;10.76;29.79;102339.75;5072456;28;19912;-76
2022/03/23 01:08:34;;;;;;;;;;;;;;;10.73;27.80;102323.97;5072856;28;19913;-77
2022/03/23 01:11:19;;;;;;;;;;;;;;;10.32;28.26;102330.56;5073286;28;19916;-77
2022/03/23 01:14:04;;;;;;;;;;;;;;;10.16;28.91;102322.44;5078901;28;20375;-77
2022/03/23 01:16:50;;;;;;;;;;;;;;;10.31;28.52;102324.31;5073016;28;19912;-77
2022/03/23 01:19:34;;;;;;;;;;;;;;;10.32;28.67;102319.69;5072845;28;20378;-77
2022/03/23 01:22:19;;;;;;;;;;;;;;;10.07;29.37;102318.59;5073084;28;19912;-76
2022/03/23 01:25:04;;;;;;;;;;;;;;;10.04;31.68;102321.88;5072461;28;19912;-76
2022/03/23 01:27:49;;;;;;;;;;;;;;;10.01;30.43;102316.97;5072562;28;19912;-76
2022/03/23 01:30:33;;;;;;;;;;;;;;;10.13;28.41;102312.09;5072218;28;19917;-76
2022/03/23 01:33:21;;;;;;;;;;;;;;;10.17;28.68;102321.34;5072315;28;19913;-76
2022/03/23 01:36:06;;;;;;;;;;;;;;;9.98;28.90;102313.97;5052469;28;20297;-76
2022/03/23 01:38:51;;;;;;;;;;;;;;;10.21;29.22;102311.56;5052363;28;19912;-76
2022/03/23 01:41:36;;;;;;;;;;;;;;;10.31;28.37;102304.50;5054322;28;20284;-76
2022/03/23 01:44:23;;;;;;;;;;;;;;;10.32;28.68;102309.63;5072896;28;19912;-76
2022/03/23 01:47:09;;;;;;;;;;;;;;;10.47;29.53;102304.16;5052253;28;19913;-76
2022/03/23 01:49:55;;;;;;;;;;;;;;;10.68;29.75;102302.22;5054458;28;20376;-76
2022/03/23 01:52:43;;;;;;;;;;;;;;;10.58;29.81;102294.09;5063742;28;19912;-76
2022/03/23 01:55:28;;;;;;;;;;;;;;;10.41;29.50;102301.75;5072125;28;19912;-76
2022/03/23 01:58:13;;;;;;;;;;;;;;;10.27;29.38;102298.78;5072380;28;19913;-76
2022/03/23 02:00:58;;;;;;;;;;;;;;;10.47;29.07;102295.19;5072092;28;19932;-74
2022/03/23 02:03:44;;;;;;;;;;;;;;;10.57;29.30;102295.97;5072258;28;19912;-76
2022/03/23 02:06:29;;;;;;;;;;;;;;;10.60;29.35;102300.06;5071696;28;20521;-76
2022/03/23 02:09:15;;;;;;;;;;;;;;;10.52;29.77;102298.72;5072682;28;19916;-76
2022/03/23 02:12:05;;;;;;;;;;;;;;;10.46;29.78;102277.28;5078307;28;19912;-77
2022/03/23 02:14:49;;;;;;;;;;;;;;;10.58;29.83;102288.66;5072257;28;19912;-75
2022/03/23 02:17:34;;;;;;;;;;;;;;;10.58;30.54;102297.63;5075046;28;19912;-76
2022/03/23 02:20:19;;;;;;;;;;;;;;;10.51;29.51;102288.13;5075848;28;19916;-75
2022/03/23 02:23:04;;;;;;;;;;;;;;;10.56;31.57;102293.56;5078818;28;19912;-75
2022/03/23 02:25:49;;;;;;;;;;;;;;;10.26;30.13;102284.34;5075769;28;19920;-75
2022/03/23 02:28:35;;;;;;;;;;;;;;;10.45;30.49;102286.50;5076057;28;19912;-75
2022/03/23 02:31:20;;;;;;;;;;;;;;;10.38;30.60;102281.34;5081531;28;19916;-76
2022/03/23 02:34:04;;;;;;;;;;;;;;;10.19;31.03;102289.28;5075732;28;19920;-76
2022/03/23 02:36:49;;;;;;;;;;;;;;;10.34;30.53;102284.91;5075820;28;19913;-78
2022/03/23 02:39:34;;;;;;;;;;;;;;;10.48;30.32;102277.78;5075540;28;19912;-76
2022/03/23 02:42:19;;;;;;;;;;;;;;;10.51;30.02;102285.41;5081392;28;19912;-77
2022/03/23 02:45:04;;;;;;;;;;;;;;;10.57;30.25;102279.66;5075640;28;19912;-76
2022/03/23 02:47:49;;;;;;;;;;;;;;;10.60;29.72;102272.88;5076692;28;19912;-76
2022/03/23 02:50:34;;;;;;;;;;;;;;;10.50;30.08;102272.91;5081135;28;19924;-76
2022/03/23 03:02:38;;;;;;;;;;;;;;;10.41;30.92;102269.13;5075295;28;19912;-76
2022/03/23 03:05:23;;;;;;;;;;;;;;;10.25;30.55;102266.44;5075277;28;19912;-76
2022/03/23 03:11:11;;;;;;;;;;;;;;;10.02;30.78;102271.59;5074986;28;19916;-76
2022/03/23 03:13:55;;;;;;;;;;;;;;;9.89;30.51;102264.81;5074992;28;19913;-75
2022/03/23 03:16:40;;;;;;;;;;;;;;;10.00;30.22;102271.88;5079101;28;20371;-76
2022/03/23 03:19:24;;;;;;;;;;;;;;;9.91;29.43;102268.06;5074793;28;19912;-77
2022/03/23 03:22:08;;;;;;;;;;;;;;;10.03;30.34;102274.03;5074726;28;19912;-77
2022/03/23 03:24:53;;;;;;;;;;;;;;;10.06;30.86;102270.75;5074791;28;19912;-76
2022/03/23 03:27:39;;;;;;;;;;;;;;;10.30;30.09;102268.34;5074254;28;19912;-76
2022/03/23 03:30:24;;;;;;;;;;;;;;;10.03;30.03;102268.59;5074385;28;19917;-77
2022/03/23 03:33:09;;;;;;;;;;;;;;;10.01;29.13;102272.66;5074723;28;19912;-76
2022/03/23 03:35:53;;;;;;;;;;;;;;;9.93;29.13;102271.31;5080105;28;20375;-77
2022/03/23 03:38:38;;;;;;;;;;;;;;;9.85;29.80;102269.16;5074345;28;19912;-76
2022/03/23 03:41:22;;;;;;;;;;;;;;;9.86;29.80;102268.88;5079527;28;19912;-76
2022/03/23 03:44:07;;;;;;;;;;;;;;;9.80;31.32;102271.88;5080075;28;19917;-76
2022/03/23 03:46:51;;;;;;;;;;;;;;;9.92;29.71;102264.25;5074333;28;19912;-78
2022/03/23 03:49:36;;;;;;;;;;;;;;;9.96;30.07;102275.38;5079725;28;19920;-76
2022/03/23 03:52:21;;;;;;;;;;;;;;;9.94;29.46;102270.25;5074215;28;19916;-76
2022/03/23 03:55:05;;;;;;;;;;;;;;;10.00;29.90;102271.06;5074142;28;19912;-76
2022/03/23 03:57:50;;;;;;;;;;;;;;;9.93;30.23;102271.31;5074111;28;20283;-76
2022/03/23 04:00:35;;;;;;;;;;;;;;;9.87;30.14;102275.94;5073972;28;19919;-77
2022/03/23 04:03:19;;;;;;;;;;;;;;;9.71;30.37;102270.78;5079854;28;19913;-75
2022/03/23 04:06:06;;;;;;;;;;;;;;;9.51;30.63;102268.03;5073999;28;19912;-77
2022/03/23 04:08:50;;;;;;;;;;;;;;;9.46;31.34;102268.84;5074167;28;19916;-75
2022/03/23 04:11:35;;;;;;;;;;;;;;;9.54;32.32;102270.22;5073696;28;20307;-75
2022/03/23 04:14:19;;;;;;;;;;;;;;;9.70;30.44;102272.66;5074416;28;20305;-75
2022/03/23 04:17:04;;;;;;;;;;;;;;;9.39;30.32;102269.13;5073768;28;19912;-75
2022/03/23 04:19:48;;;;;;;;;;;;;;;9.40;30.46;102270.75;5073510;28;19912;-76
2022/03/23 04:22:33;;;;;;;;;;;;;;;9.49;30.37;102276.47;5074233;28;19912;-76
2022/03/23 04:25:18;;;;;;;;;;;;;;;9.49;30.65;102270.22;5096368;22;20772;-78
2022/03/23 04:28:02;;;;;;;;;;;;;;;9.72;30.09;102277.84;5093420;28;19920;-80
2022/03/23 04:30:47;;;;;;;;;;;;;;;9.61;30.20;102279.72;5095201;28;20296;-81
2022/03/23 04:33:32;;;;;;;;;;;;;;;9.20;32.49;102286.97;5084662;28;19911;-80
2022/03/23 04:36:17;;;;;;;;;;;;;;;9.12;32.17;102273.94;5082229;28;20385;-81
2022/03/23 04:39:01;;;;;;;;;;;;;;;9.31;31.41;102269.66;5060156;28;19912;-81
2022/03/23 04:41:46;;;;;;;;;;;;;;;9.26;32.47;102271.53;5059250;28;19919;-80
2022/03/23 04:44:31;;;;;;;;;;;;;;;9.06;32.03;102269.59;5072527;28;19913;-80
2022/03/23 04:47:15;;;;;;;;;;;;;;;9.21;30.97;102274.22;5072919;28;19912;-80
2022/03/23 04:50:02;;;;;;;;;;;;;;;9.28;30.81;102278.34;5059109;28;20300;-80
2022/03/23 04:52:48;;;;;;;;;;;;;;;9.32;30.55;102275.88;5072567;28;19912;-80
2022/03/23 04:55:32;;;;;;;;;;;;;;;9.36;30.78;102277.78;5072670;28;20373;-81
2022/03/23 04:58:17;;;;;;;;;;;;;;;9.22;30.99;102282.13;5060594;28;19912;-81
2022/03/23 05:01:02;;;;;;;;;;;;;;;8.95;31.23;102282.28;5068290;28;19912;-82
2022/03/23 05:03:46;;;;;;;;;;;;;;;8.98;31.71;102283.69;5065360;28;19913;-83
2022/03/23 05:06:31;;;;;;;;;;;;;;;9.06;31.05;102285.03;5080146;28;19912;-84
2022/03/23 05:09:15;;;;;;;;;;;;;;;8.96;31.03;102286.66;5078339;28;19916;-83
2022/03/23 05:12:00;;;;;;;;;;;;;;;8.53;31.64;102287.78;5076697;28;19920;-82
2022/03/23 05:14:44;;;;;;;;;;;;;;;8.77;30.69;102290.91;5069643;28;19913;-82
2022/03/23 05:17:28;;;;;;;;;;;;;;;8.75;30.98;102287.63;5078362;28;20316;-81
2022/03/23 05:20:14;;;;;;;;;;;;;;;8.83;30.77;102286.31;5092967;28;19913;-82
2022/03/23 05:22:59;;;;;;;;;;;;;;;8.87;31.17;102282.00;5074172;28;19912;-81
2022/03/23 05:25:43;;;;;;;;;;;;;;;8.57;31.50;102282.69;5048559;28;19912;-82
2022/03/23 05:28:28;;;;;;;;;;;;;;;8.55;31.67;102280.22;5077515;28;19913;-81
2022/03/23 05:31:12;;;;;;;;;;;;;;;8.51;31.63;102287.25;5060533;28;20312;-82
2022/03/23 05:33:57;;;;;;;;;;;;;;;8.47;32.42;102280.72;5073241;28;19912;-82
2022/03/23 05:36:41;;;;;;;;;;;;;;;8.44;32.24;102285.84;5058811;28;20388;-82
2022/03/23 05:39:25;;;;;;;;;;;;;;;8.47;32.03;102288.03;5073675;28;20304;-82
2022/03/23 05:42:11;;;;;;;;;;;;;;;8.49;32.13;102281.25;5058516;28;19916;-83
2022/03/23 05:44:55;;;;;;;;;;;;;;;8.53;32.63;102290.50;5076043;28;19912;-82
2022/03/23 05:47:40;;;;;;;;;;;;;;;8.58;31.79;102287.03;5074357;28;19916;-83
2022/03/23 05:50:25;;;;;;;;;;;;;;;8.58;31.87;102287.81;5079910;28;19917;-79
2022/03/23 05:53:09;;;;;;;;;;;;;;;8.57;32.04;102298.94;5098134;28;19916;-80
2022/03/23 05:55:54;;;;;;;;;;;;;;;8.54;32.57;102307.59;5077220;28;20396;-82
2022/03/23 05:58:38;;;;;;;;;;;;;;;8.59;32.50;102307.59;5066475;28;19912;-79
2022/03/23 06:01:23;;;;;;;;;;;;;;;8.74;32.52;102301.44;5055817;28;19916;-80
2022/03/23 06:04:08;;;;;;;;;;;;;;;8.75;32.79;102308.50;5070716;28;19912;-79
2022/03/23 06:06:53;;;;;;;;;;;;;;;8.82;32.85;102315.34;5078539;28;19912;-79
2022/03/23 06:09:37;;;;;;;;;;;;;;;8.94;35.97;102312.38;5066819;28;19912;-79
2022/03/23 06:12:22;;;;;;;;;;;;;;;9.08;35.14;102308.13;5068344;28;19912;-79
2022/03/23 06:15:08;;;;;;;;;;;;;;;9.09;34.08;102312.47;5078865;28;19912;-81
2022/03/23 06:17:53;;;;;;;;;;;;;;;9.13;34.91;102319.00;5078691;28;19912;-78
2022/03/23 06:20:37;;;;;;;;;;;;;;;9.39;35.50;102318.00;5078252;28;19912;-80
2022/03/23 06:23:22;;;;;;;;;;;;;;;9.56;34.86;102320.47;5066474;28;20384;-79
2022/03/23 06:26:07;;;;;;;;;;;;;;;9.81;35.22;102325.09;5063486;28;20296;-82
2022/03/23 06:28:51;;;;;;;;;;;;;;;9.87;33.90;102318.59;5068381;28;19913;-82
2022/03/23 06:31:36;;;;;;;;;;;;;;;9.94;33.14;102327.31;5066261;28;19916;-79
2022/03/23 06:34:21;;;;;;;;;;;;;;;11.94;31.31;102327.97;5077631;28;20373;-77
2022/03/23 06:37:05;;;;;;;;;;;;;;;17.72;20.75;102327.28;5079584;28;19912;-77
2022/03/23 06:39:49;;;;;;;;;;;;;;;21.40;17.16;102334.22;5070473;28;20304;-77
2022/03/23 06:42:34;;;;;;;;;;;;;;;22.35;15.44;102331.44;5078452;28;19912;-77
2022/03/23 06:45:18;;;;;;;;;;;;;;;23.91;14.58;102343.47;5083539;28;19912;-74
2022/03/23 06:48:03;;;;;;;;;;;;;;;24.35;13.69;102343.13;5090192;28;19912;-77
2022/03/23 06:50:47;;;;;;;;;;;;;;;25.52;12.65;102341.03;5064427;28;19916;-77
2022/03/23 06:53:31;;;;;;;;;;;;;;;26.26;11.96;102349.53;5068146;28;19916;-76
2022/03/23 06:56:16;;;;;;;;;;;;;;;25.01;13.20;102346.28;5047822;28;19912;-76
2022/03/23 06:59:00;;;;;;;;;;;;;;;22.04;15.25;102342.50;5079461;28;19912;-77
2022/03/23 07:01:45;;;;;;;;;;;;;;;20.84;18.31;102345.09;5062070;28;20380;-79
2022/03/23 07:04:29;;;;;;;;;;;;;;;24.27;15.13;102354.13;5074467;28;19912;-78
2022/03/23 07:07:13;;;;;;;;;;;;;;;21.87;16.65;102349.09;5060093;28;19912;-77
2022/03/23 07:09:58;;;;;;;;;;;;;;;22.51;16.29;102348.91;5076212;28;19912;-79
2022/03/23 07:12:42;;;;;;;;;;;;;;;24.28;14.81;102343.78;5078115;28;19912;-80
2022/03/23 07:15:27;;;;;;;;;;;;;;;28.73;11.46;102354.91;5074794;28;19912;-80
2022/03/23 07:18:11;;;;;;;;;;;;;;;26.05;13.10;102360.44;5058483;28;19913;-79
2022/03/23 07:20:56;;;;;;;;;;;;;;;25.94;12.83;102359.50;5070284;28;19913;-79
2022/03/23 07:23:40;;;;;;;;;;;;;;;23.31;14.83;102353.25;5062325;28;19916;-80
2022/03/23 07:26:25;;;;;;;;;;;;;;;24.54;13.61;102349.44;5060262;28;19912;-81
2022/03/23 07:29:09;;;;;;;;;;;;;;;26.09;13.09;102347.34;5071566;28;19912;-79
2022/03/23 07:31:53;;;;;;;;;;;;;;;25.46;12.15;102347.31;5066735;28;19924;-79
2022/03/23 07:34:38;;;;;;;;;;;;;;;24.60;12.50;102339.59;5076923;28;19912;-80
2022/03/23 07:37:22;;;;;;;;;;;;;;;25.12;12.47;102344.47;5076707;28;20317;-85
2022/03/23 07:40:07;;;;;;;;;;;;;;;25.75;10.95;102354.09;5066066;28;19913;-84
2022/03/23 07:42:52;;;;;;;;;;;;;;;25.14;11.46;102349.66;5078415;28;20376;-83
2022/03/23 07:45:36;;;;;;;;;;;;;;;24.77;11.66;102348.63;5069960;28;19912;-80
2022/03/23 07:48:22;;;;;;;;;;;;;;;27.42;10.94;102348.88;5092758;28;20376;-82
2022/03/23 07:51:07;;;;;;;;;;;;;;;27.21;9.77;102352.34;5076009;28;19916;-83
2022/03/23 07:53:51;;;;;;;;;;;;;;;29.98;7.51;102355.41;5075704;28;19912;-87
2022/03/23 07:56:36;;;;;;;;;;;;;;;32.86;6.70;102367.91;5075199;28;19912;-86
2022/03/23 07:59:20;;;;;;;;;;;;;;;31.83;6.66;102349.75;5074722;28;19916;-84
2022/03/23 08:02:06;;;;;;;;;;;;;;;28.48;8.52;102354.06;5064857;28;19912;-83
2022/03/23 08:04:51;;;;;;;;;;;;;;;29.66;7.51;102358.34;5075326;28;19913;-83
2022/03/23 08:07:36;;;;;;;;;;;;;;;29.73;7.28;102364.72;5079638;28;20304;-85
2022/03/23 08:10:21;;;;;;;;;;;;;;;27.20;8.56;102345.16;5080542;28;19916;-86
2022/03/23 08:13:09;;;;;;;;;;;;;;;31.32;6.88;102362.00;5067322;28;19912;-86
2022/03/23 08:15:53;;;;;;;;;;;;;;;31.29;6.47;102357.97;5076963;28;19995;-84
2022/03/23 08:18:41;;;;;;;;;;;;;;;31.03;6.58;102369.94;5074937;28;19913;-84
2022/03/23 08:21:26;;;;;;;;;;;;;;;28.46;7.50;102359.25;5070524;28;19912;-85
2022/03/23 08:24:14;;;;;;;;;;;;;;;27.73;7.90;102361.44;5048705;28;19916;-85
2022/03/23 08:26:59;;;;;;;;;;;;;;;35.64;4.61;102373.19;5056944;28;19912;-82
2022/03/23 08:29:44;;;;;;;;;;;;;;;32.09;6.01;102365.88;5067657;28;19912;-85
2022/03/23 08:32:29;;;;;;;;;;;;;;;34.46;4.75;102371.88;5070300;28;19916;-86
2022/03/23 08:35:13;;;;;;;;;;;;;;;29.91;6.47;102369.47;5076216;28;19913;-83
2022/03/23 08:37:58;;;;;;;;;;;;;;;31.43;5.90;102366.28;5065325;28;19912;-84
2022/03/23 08:40:48;;;;;;;;;;;;;;;33.56;5.13;102377.09;5066955;28;19920;-86
2022/03/23 08:43:33;;;;;;;;;;;;;;;33.20;5.71;102365.69;5065105;28;19912;-86
2022/03/23 08:46:19;;;;;;;;;;;;;;;34.86;4.32;102378.16;5061663;28;19912;-86
2022/03/23 08:49:08;;;;;;;;;;;;;;;34.55;4.55;102374.06;5076290;28;19912;-86
2022/03/23 08:51:53;;;;;;;;;;;;;;;32.99;5.47;102377.34;5061637;28;19916;-84
2022/03/23 08:54:38;;;;;;;;;;;;;;;32.97;5.33;102368.50;5061268;28;20297;-86
2022/03/23 08:57:23;;;;;;;;;;;;;;;32.48;5.62;102367.31;5056476;28;19912;-87
2022/03/23 09:00:13;;;;;;;;;;;;;;;33.41;5.47;102368.13;5062980;28;19916;-86
2022/03/23 09:03:02;;;;;;;;;;;;;;;30.25;6.65;102364.88;5071589;28;19912;-86
2022/03/23 09:05:47;;;;;;;;;;;;;;;32.99;5.94;102366.88;5064854;28;19912;-86
2022/03/23 09:08:34;;;;;;;;;;;;;;;32.89;6.02;102362.22;5073374;28;19912;-86
2022/03/23 09:11:19;;;;;;;;;;;;;;;29.53;8.01;102366.41;5066811;28;19924;-85
2022/03/23 09:14:04;;;;;;;;;;;;;;;31.27;6.63;102362.44;5066806;28;19912;-85
2022/03/23 09:16:50;;;;;;;;;;;;;;;31.88;6.41;102354.91;5062979;28;20384;-84
2022/03/23 09:19:36;;;;;;;;;;;;;;;31.26;6.51;102358.84;5070910;28;19912;-85
2022/03/23 09:22:21;;;;;;;;;;;;;;;30.31;7.01;102356.81;5065069;28;19913;-82
2022/03/23 09:25:08;;;;;;;;;;;;;;;31.95;6.17;102357.59;5061843;28;19912;-81
2022/03/23 09:27:53;;;;;;;;;;;;;;;32.14;6.13;102362.59;5070773;28;19920;-81
2022/03/23 09:30:38;;;;;;;;;;;;;;;32.45;5.95;102365.34;5078255;28;19916;-82
2022/03/23 09:33:22;;;;;;;;;;;;;;;31.84;6.36;102357.75;5073112;28;19912;-82
2022/03/23 09:37:47;;;;;;;;;;;;;;;33.15;5.78;102360.53;5073078;28;19934;-85
2022/03/23 09:39:11;;;;;;;;;;;;;;;32.98;5.64;102359.63;5062107;28;20364;-82
2022/03/23 09:41:59;;;;;;;;;;;;;;;30.95;6.86;102354.31;5062922;28;19912;-81
2022/03/23 09:44:48;;;;;;;;;;;;;;;30.93;7.15;102363.13;5064407;28;19912;-80
2022/03/23 09:47:32;;;;;;;;;;;;;;;32.01;6.40;102350.28;5072986;28;19912;-83
2022/03/23 09:50:16;;;;;;;;;;;;;;;27.56;9.22;102346.19;5058303;28;19913;-80
2022/03/23 09:53:02;;;;;;;;;;;;;;;24.60;11.41;102339.59;5064235;28;19921;-81
2022/03/23 09:55:48;;;;;;;;;;;;;;;23.99;11.80;102333.28;5057852;28;19921;-81
2022/03/23 09:58:32;;;;;;;;;;;;;;;23.53;11.96;102324.81;5052060;28;19920;-81
2022/03/23 10:01:32;;;;;;;;;;;;;;;22.68;12.50;102331.09;5056254;28;19916;-80
2022/03/23 10:04:20;;;;;;;;;;;;;;;22.13;12.78;102321.78;5052972;28;19912;-80
2022/03/23 10:07:17;;;;;;;;;;;;;;;22.21;13.71;102316.41;5061682;28;19912;-79
2022/03/23 10:10:20;;;;;;;;;;;;;;;22.02;13.20;102312.34;5060646;28;19968;-80
2022/03/23 10:13:24;;;;;;;;;;;;;;;22.05;13.67;102313.59;5070910;28;20312;-79
2022/03/23 10:16:32;;;;;;;;;;;;;;;21.27;13.74;102314.09;5055360;28;19932;-81
2022/03/23 10:19:17;;;;;;;;;;;;;;;20.78;13.36;102296.69;5045320;28;19912;-83
2022/03/23 10:22:08;;;;;;;;;;;;;;;20.77;13.14;102300.63;5043101;28;19912;-82
2022/03/23 10:24:53;;;;;;;;;;;;;;;20.37;14.96;102298.50;5061517;28;19912;-83
2022/03/23 10:27:38;;;;;;;;;;;;;;;20.76;14.02;102305.34;5069617;28;20400;-84
2022/03/23 10:30:42;;;;;;;;;;;;;;;20.65;13.77;102297.84;5073639;28;19912;-82
2022/03/23 10:33:27;;;;;;;;;;;;;;;20.42;15.25;102290.00;5060023;28;19912;-83
2022/03/23 10:36:15;;;;;;;;;;;;;;;20.71;15.42;102294.53;5076423;28;19912;-82
2022/03/23 10:39:03;;;;;;;;;;;;;;;20.78;14.41;102289.22;5080156;28;19912;-82
2022/03/23 10:41:58;;;;;;;;;;;;;;;19.96;15.14;102282.06;5093909;28;20308;-81
2022/03/23 10:44:44;;;;;;;;;;;;;;;20.20;15.31;102276.59;5076844;28;19920;-80
2022/03/23 10:47:31;;;;;;;;;;;;;;;20.72;14.74;102281.50;5075296;28;19913;-80
2022/03/23 10:50:23;;;;;;;;;;;;;;;20.76;14.24;102274.13;5057096;28;19912;-81
2022/03/23 10:53:08;;;;;;;;;;;;;;;21.26;13.68;102269.00;5063538;28;19916;-82
2022/03/23 10:55:52;;;;;;;;;;;;;;;21.39;13.33;102263.41;5080904;28;20554;-81
2022/03/23 10:58:37;;;;;;;;;;;;;;;21.52;13.72;102267.78;5092239;28;19912;-79
2022/03/23 11:01:21;;;;;;;;;;;;;;;21.34;12.98;102259.75;5056785;28;19916;-82
2022/03/23 11:04:09;;;;;;;;;;;;;;;21.15;13.43;102256.81;5072551;28;19913;-84
2022/03/23 11:06:54;;;;;;;;;;;;;;;21.56;13.31;102258.41;5078881;28;19912;-81
2022/03/23 11:16:02;;;;;;;;;;;;;;;22.15;10.99;102241.84;5078296;28;19912;-83
2022/03/23 11:18:46;;;;;;;;;;;;;;;22.01;11.02;102237.91;5083417;28;19914;-81
2022/03/23 11:21:31;;;;;;;;;;;;;;;22.01;11.23;102237.91;5065402;28;19912;-83
2022/03/23 11:24:16;;;;;;;;;;;;;;;22.60;12.37;102235.03;5063827;28;19916;-84
2022/03/23 11:27:00;;;;;;;;;;;;;;;22.86;12.35;102234.47;5076593;28;19917;-81
2022/03/23 11:29:46;;;;;;;;;;;;;;;22.96;11.73;102234.69;5074958;28;19912;-81
2022/03/23 11:32:37;;;;;;;;;;;;;;;23.16;11.62;102229.19;5066932;28;20339;-84
2022/03/23 11:35:22;;;;;;;;;;;;;;;23.15;11.66;102222.03;5066660;28;19912;-84
2022/03/23 11:38:11;;;;;;;;;;;;;;;22.96;11.68;102218.06;5071202;28;19912;-82
2022/03/23 11:40:56;;;;;;;;;;;;;;;22.05;12.56;102217.44;5075662;28;20385;-82
2022/03/23 11:43:41;;;;;;;;;;;;;;;22.68;12.10;102211.84;5061504;28;19921;-82
2022/03/23 11:46:26;;;;;;;;;;;;;;;22.40;12.18;102191.78;5058578;28;19912;-82
2022/03/23 11:49:43;;;;;;;;;;;;;;;22.68;11.65;102205.50;5049269;28;19916;-78
2022/03/23 11:52:46;;;;;;;;;;;;;;;23.20;11.43;102194.00;5071408;22;19921;-75
2022/03/23 11:55:42;;;;;;;;;;;;;;;23.33;11.53;102192.66;5029675;28;19917;-77
2022/03/23 11:58:36;;;;;;;;;;;;;;;22.48;11.60;102186.03;5023339;28;19913;-78
2022/03/23 12:01:29;;;;;;;;;;;;;;;22.28;12.40;102176.06;5037751;28;19912;-78
2022/03/23 12:04:17;;;;;;;;;;;;;;;23.04;11.94;102166.31;5027842;28;19913;-78
2022/03/23 12:07:03;;;;;;;;;;;;;;;23.34;11.88;102170.09;5037598;28;19913;-77
2022/03/23 12:09:48;;;;;;;;;;;;;;;23.81;11.61;102164.25;5029020;28;19912;-76
2022/03/23 12:12:34;;;;;;;;;;;;;;;23.82;11.45;102163.06;5052055;28;19916;-79
2022/03/23 12:15:28;;;;;;;;;;;;;;;23.59;11.70;102145.59;5056068;28;19920;-77
2022/03/23 12:18:14;;;;;;;;;;;;;;;23.95;11.36;102138.69;5045753;28;19912;-79
2022/03/23 12:20:59;;;;;;;;;;;;;;;24.26;11.52;102146.75;5056836;28;19912;-78
2022/03/23 12:23:53;;;;;;;;;;;;;;;23.92;11.28;102144.19;5057602;28;19912;-78
2022/03/23 12:26:39;;;;;;;;;;;;;;;22.95;12.14;102130.47;5057305;28;19913;-79
2022/03/23 12:29:27;;;;;;;;;;;;;;;23.64;11.06;102136.16;5078134;28;19913;-78
2022/03/23 12:32:13;;;;;;;;;;;;;;;23.42;11.65;102127.41;5077354;28;19916;-78
2022/03/23 12:34:58;;;;;;;;;;;;;;;23.65;11.54;102124.69;5042180;28;19912;-78
2022/03/23 12:37:43;;;;;;;;;;;;;;;23.59;11.09;102117.81;5056021;28;19912;-77
2022/03/23 12:40:38;;;;;;;;;;;;;;;23.85;11.02;102119.84;5061509;28;19912;-76
2022/03/23 12:43:43;;;;;;;;;;;;;;;23.76;11.26;102117.34;5066015;28;19912;-77
2022/03/23 12:46:28;;;;;;;;;;;;;;;23.44;11.50;102115.94;5051993;28;19912;-76
2022/03/23 12:58:30;;;;;;;;;;;;;;;24.43;10.70;102098.13;5063928;28;19913;-76
2022/03/23 13:01:16;;;;;;;;;;;;;;;24.47;10.87;102090.66;5051929;28;19917;-75
2022/03/23 13:04:01;;;;;;;;;;;;;;;24.78;10.64;102083.91;5062247;28;19912;-75
2022/03/23 13:06:46;;;;;;;;;;;;;;;24.71;10.94;102073.47;5053987;28;19916;-76
2022/03/23 13:09:30;;;;;;;;;;;;;;;24.80;10.56;102080.72;5056525;28;20272;-76
2022/03/23 13:12:22;;;;;;;;;;;;;;;24.64;10.98;102062.25;5061415;28;19916;-76
2022/03/23 13:15:10;;;;;;;;;;;;;;;24.62;11.09;102064.63;5063663;28;19913;-77
2022/03/23 13:17:56;;;;;;;;;;;;;;;24.81;10.55;102057.28;5045765;28;19913;-76
2022/03/23 13:20:48;;;;;;;;;;;;;;;24.43;11.15;102059.19;5044658;28;19913;-76
2022/03/23 13:23:34;;;;;;;;;;;;;;;24.26;11.81;102057.78;5036167;28;19920;-76
2022/03/23 13:26:21;;;;;;;;;;;;;;;24.47;11.37;102048.13;5064345;28;19913;-77
2022/03/23 13:29:08;;;;;;;;;;;;;;;24.57;10.82;102044.69;5039253;28;19916;-76
2022/03/23 13:31:52;;;;;;;;;;;;;;;23.58;11.27;102041.22;5054856;28;19917;-76
2022/03/23 13:34:37;;;;;;;;;;;;;;;23.93;11.22;102037.41;5042650;28;19912;-76
2022/03/23 13:37:22;;;;;;;;;;;;;;;24.24;11.12;102034.31;5054860;28;19913;-76
2022/03/23 13:40:10;;;;;;;;;;;;;;;24.26;11.12;102034.75;5049161;28;19916;-76
2022/03/23 13:46:03;;;;;;;;;;;;;;;24.20;11.06;102031.50;5052050;28;19912;-78
2022/03/23 13:48:58;;;;;;;;;;;;;;;24.43;11.08;102028.59;5052963;28;19912;-77
2022/03/23 13:51:45;;;;;;;;;;;;;;;23.61;11.48;102026.59;5060097;28;19917;-79
2022/03/23 13:54:29;;;;;;;;;;;;;;;22.40;12.29;102012.38;5056245;28;19913;-78
2022/03/23 13:57:14;;;;;;;;;;;;;;;23.27;12.33;102013.69;5057758;28;19913;-79
2022/03/23 13:59:59;;;;;;;;;;;;;;;23.66;12.22;102012.41;5048996;28;19913;-79
2022/03/23 14:02:47;;;;;;;;;;;;;;;23.84;11.69;102010.69;5055724;28;19913;-77
2022/03/23 14:05:35;;;;;;;;;;;;;;;24.01;11.48;102006.56;5050665;28;20380;-78
2022/03/23 14:08:19;;;;;;;;;;;;;;;23.89;12.18;102004.00;5034034;28;19912;-77
2022/03/23 14:11:04;;;;;;;;;;;;;;;23.84;11.75;102001.56;5057118;28;19912;-78
2022/03/23 14:13:50;;;;;;;;;;;;;;;23.98;11.35;101990.63;5062244;28;19913;-78
2022/03/23 14:16:35;;;;;;;;;;;;;;;23.91;11.71;101987.78;5061622;28;19913;-78
2022/03/23 14:19:20;;;;;;;;;;;;;;;23.74;11.83;102000.22;5062438;28;19913;-80
2022/03/23 14:22:07;;;;;;;;;;;;;;;23.85;12.20;101994.81;5054406;28;19913;-80
2022/03/23 14:24:56;;;;;;;;;;;;;;;23.78;11.72;101986.38;5063564;28;19916;-78
2022/03/23 14:27:41;;;;;;;;;;;;;;;23.76;12.10;101991.53;5063400;28;19912;-78
2022/03/23 14:30:30;;;;;;;;;;;;;;;23.45;12.55;101984.28;5063449;28;19917;-79
2022/03/23 14:33:17;;;;;;;;;;;;;;;23.37;12.45;101976.97;5062649;28;19917;-78
2022/03/23 14:36:06;;;;;;;;;;;;;;;23.41;12.16;101981.44;5069013;28;19912;-78
2022/03/23 14:38:50;;;;;;;;;;;;;;;23.56;12.14;101982.50;5063071;28;20383;-78
2022/03/23 14:41:36;;;;;;;;;;;;;;;23.46;12.16;101973.97;5058097;28;19912;-78
2022/03/23 14:44:34;;;;;;;;;;;;;;;23.51;12.08;101970.91;5068099;28;19913;-77
2022/03/23 14:47:42;;;;;;;;;;;;;;;23.47;12.30;101965.25;5059615;28;19912;-79
2022/03/23 14:50:28;;;;;;;;;;;;;;;23.17;12.63;101970.69;5062111;28;19912;-78